LZPP

Piešťany Airport

Piešťany, Slovakia (Slovak Republic)
TAF LZPP 210800Z 2109/2118 20007KT CAVOK
Issued Valid From Valid To
Apr-21 @ 08:00 UTC
(2 hours ago)
Apr-21 @ 09:00 UTC
(42 minutes ago)
Apr-21 @ 18:00 UTC
(in 8 hours)
Apr-21 @ 09:00 to Apr-21 @ 18:00
TAF LZPP 210800Z 2109/2118 20007KT CAVOK
Wind Visibility Clouds Conditions
200° at 7 knots 10,000+ meters
  • No significant clouds
TAF LZPP 210800Z 2109/2118 20007KT CAVOK
Issued Apr-21 @ 08:00 UTC
(2 hours ago)
Valid From Apr-21 @ 09:00 UTC
(42 minutes ago)
Valid To Apr-21 @ 18:00 UTC
(in 8 hours)
Apr-21 @ 09:00 - Apr-21 @ 18:00
Wind Visibility
200° at 7 knots 10,000+ meters
Clouds
  • No significant clouds
Conditions